createdAt,value
2023-03-29T00:01:35.441Z,101506.75
2023-03-29T00:04:04.638Z,101509.03
2023-03-29T00:06:34.676Z,101496.13
2023-03-29T00:09:05.276Z,101494.44
2023-03-29T00:11:33.162Z,101489.81
2023-03-29T00:14:00.859Z,101489.81
2023-03-29T00:16:28.608Z,101482.09
2023-03-29T00:18:56.361Z,101485.66
2023-03-29T00:21:24.017Z,101485.25
2023-03-29T00:23:53.070Z,101483.78
2023-03-29T00:26:20.952Z,101484.19
2023-03-29T00:28:48.628Z,101482.34
2023-03-29T00:31:18.149Z,101472.97
2023-03-29T00:33:47.445Z,101482.53
2023-03-29T00:36:16.008Z,101477.78
2023-03-29T00:38:43.736Z,101475.91
2023-03-29T00:41:12.762Z,101475.94
2023-03-29T00:43:54.362Z,101478.44
2023-03-29T00:46:22.208Z,101479.06
2023-03-29T00:48:52.243Z,101473.81
2023-03-29T00:51:21.900Z,101476.75
2023-03-29T00:53:51.734Z,101471.13
2023-03-29T00:56:24.970Z,101461.34
2023-03-29T00:58:58.426Z,101466.75
2023-03-29T01:01:33.898Z,101455.72
2023-03-29T01:04:05.827Z,101443.44
2023-03-29T01:06:37.462Z,101446.75
2023-03-29T01:09:10.258Z,101439.03
2023-03-29T01:11:42.964Z,101435.94
2023-03-29T01:14:16.864Z,101435.94
2023-03-29T01:16:45.875Z,103144.97
2023-03-29T01:19:16.954Z,101429.88
2023-03-29T01:21:51.520Z,101429.66
2023-03-29T01:24:41.934Z,101420.94
2023-03-29T01:27:16.783Z,101413.88
2023-03-29T01:29:50.044Z,101411.56
2023-03-29T01:32:23.192Z,101403.06
2023-03-29T01:34:57.611Z,101399.50
2023-03-29T01:37:30.212Z,101396.56
2023-03-29T01:39:57.877Z,101394.50
2023-03-29T01:42:36.579Z,101381.19
2023-03-29T01:45:14.766Z,101381.59
2023-03-29T01:47:48.797Z,101371.38
2023-03-29T01:50:20.717Z,101371.41
2023-03-29T01:52:53.623Z,101360.75
2023-03-29T01:55:25.112Z,101355.56
2023-03-29T01:57:55.554Z,101353.66
2023-03-29T02:00:27.736Z,101348.25
2023-03-29T02:03:00.283Z,101342.19
2023-03-29T02:05:29.356Z,101337.00
2023-03-29T02:07:59.383Z,101333.47
2023-03-29T02:10:27.895Z,101322.63
2023-03-29T02:12:56.320Z,101327.22
2023-03-29T02:15:25.648Z,101329.31
2023-03-29T02:17:53.453Z,101322.25
2023-03-29T02:20:25.136Z,101327.84
2023-03-29T02:22:59.506Z,101319.50
2023-03-29T02:25:27.226Z,101316.38
2023-03-29T02:27:55.881Z,101314.06
2023-03-29T02:30:28.590Z,101324.28
2023-03-29T02:33:02.007Z,101310.56
2023-03-29T02:35:36.348Z,101304.31
2023-03-29T02:38:06.864Z,101307.44
2023-03-29T02:40:37.566Z,101300.78
2023-03-29T02:43:08.656Z,101303.06
2023-03-29T02:45:38.952Z,101301.63
2023-03-29T02:48:10.961Z,101307.03
2023-03-29T02:50:40.549Z,101303.09
2023-03-29T02:53:14.060Z,101298.50
2023-03-29T02:55:41.722Z,101296.00
2023-03-29T02:58:09.425Z,101285.78
2023-03-29T03:00:43.064Z,101280.59
2023-03-29T03:03:11.915Z,101277.69
2023-03-29T03:05:39.851Z,101275.81
2023-03-29T03:08:08.531Z,101271.66
2023-03-29T03:10:37.321Z,101267.91
2023-03-29T03:13:05.176Z,101271.03
2023-03-29T03:15:35.572Z,101273.94
2023-03-29T03:18:04.863Z,101269.34
2023-03-29T03:20:33.263Z,101274.38
2023-03-29T03:23:03.263Z,101260.38
2023-03-29T03:25:31.634Z,101256.22
2023-03-29T03:27:59.432Z,101249.56
2023-03-29T03:30:27.146Z,101246.44
2023-03-29T03:32:55.658Z,101251.22
2023-03-29T03:35:25.023Z,101252.44
2023-03-29T03:37:52.764Z,101243.69
2023-03-29T03:40:20.890Z,101253.28
2023-03-29T03:42:48.510Z,101254.69
2023-03-29T03:45:16.542Z,101244.72
2023-03-29T03:47:44.301Z,101249.72
2023-03-29T03:50:13.640Z,101246.16
2023-03-29T03:52:42.653Z,101245.72
2023-03-29T03:55:10.670Z,101233.69
2023-03-29T03:57:38.365Z,101245.53
2023-03-29T04:00:19.128Z,101234.72
2023-03-29T04:02:48.217Z,101236.56
2023-03-29T04:05:17.203Z,101228.28
2023-03-29T04:07:46.291Z,101227.22
2023-03-29T04:10:14.019Z,101226.41
2023-03-29T04:12:41.719Z,101227.22
2023-03-29T04:15:10.460Z,101226.44
2023-03-29T04:17:38.777Z,101231.41
2023-03-29T04:20:11.502Z,101228.28
2023-03-29T04:22:39.385Z,101233.25
2023-03-29T04:25:10.292Z,101231.84
2023-03-29T04:27:38.125Z,101229.94
2023-03-29T04:30:07.248Z,101225.59
2023-03-29T04:32:34.932Z,101226.22
2023-03-29T04:35:04.727Z,101231.19
2023-03-29T04:37:32.470Z,101216.25
2023-03-29T04:40:01.226Z,101225.22
2023-03-29T04:42:30.250Z,101217.31
2023-03-29T04:44:58.493Z,101212.31
2023-03-29T04:47:29.900Z,101209.41
2023-03-29T04:49:57.935Z,101217.53
2023-03-29T04:52:26.370Z,101218.78
2023-03-29T04:54:54.047Z,101214.16
2023-03-29T04:57:21.719Z,101213.38
2023-03-29T04:59:50.739Z,101216.47
2023-03-29T05:02:18.652Z,101215.66
2023-03-29T05:04:46.377Z,101209.41
2023-03-29T05:10:12.887Z,101211.91
2023-03-29T05:12:40.629Z,101205.47
2023-03-29T05:15:11.069Z,101203.81
2023-03-29T05:17:39.327Z,101194.88
2023-03-29T05:20:11.104Z,101190.09
2023-03-29T05:22:40.153Z,101188.84
2023-03-29T05:25:10.667Z,101184.69
2023-03-29T05:27:38.150Z,101187.19
2023-03-29T05:30:07.079Z,101187.19
2023-03-29T05:32:37.974Z,101182.41
2023-03-29T05:35:06.673Z,101179.72
2023-03-29T05:37:34.643Z,101177.63
2023-03-29T05:40:10.070Z,101175.53
2023-03-29T05:42:38.634Z,101172.63
2023-03-29T05:45:07.492Z,101171.81
2023-03-29T05:47:36.858Z,101171.38
2023-03-29T05:50:05.008Z,101175.34
2023-03-29T05:52:32.627Z,101175.97
2023-03-29T05:55:00.579Z,101179.47
2023-03-29T05:57:28.305Z,101186.59
2023-03-29T05:59:56.478Z,101188.44
2023-03-29T06:02:25.663Z,101183.66
2023-03-29T06:04:55.213Z,101186.97
2023-03-29T06:07:23.352Z,101179.47
2023-03-29T06:09:51.003Z,101181.75
2023-03-29T06:12:20.119Z,101183.03
2023-03-29T06:14:48.090Z,101191.34
2023-03-29T06:17:15.862Z,101190.91
2023-03-29T06:19:44.276Z,101177.56
2023-03-29T06:22:14.896Z,101182.38
2023-03-29T06:24:42.782Z,101190.03
2023-03-29T06:27:10.417Z,101192.94
2023-03-29T06:29:38.091Z,101186.91
2023-03-29T06:32:06.295Z,101190.84
2023-03-29T06:34:36.069Z,101188.91
2023-03-29T06:37:05.871Z,101182.47
2023-03-29T06:39:35.654Z,101182.88
2023-03-29T06:42:13.030Z,101183.09
2023-03-29T06:44:48.310Z,101189.56
2023-03-29T06:47:17.183Z,101185.97
2023-03-29T06:49:44.921Z,101178.88
2023-03-29T06:52:12.589Z,101176.59
2023-03-29T06:54:41.719Z,101171.78
2023-03-29T06:57:10.322Z,101178.38
2023-03-29T06:59:38.096Z,101175.88
2023-03-29T07:02:05.881Z,101174.78
2023-03-29T07:04:35.151Z,101179.81
2023-03-29T07:07:03.485Z,101171.38
2023-03-29T07:09:32.182Z,101177.00
2023-03-29T07:12:01.538Z,101172.94
2023-03-29T07:14:30.042Z,101167.22
2023-03-29T07:16:58.501Z,101168.00
2023-03-29T07:19:27.348Z,101179.91
2023-03-29T07:21:56.388Z,101175.66
2023-03-29T07:24:24.033Z,101174.22
2023-03-29T07:27:03.297Z,101185.69
2023-03-29T07:29:33.776Z,101181.28
2023-03-29T07:32:01.419Z,101189.16
2023-03-29T07:34:29.918Z,101185.53
2023-03-29T07:36:57.667Z,101169.28
2023-03-29T07:39:26.502Z,101169.91
2023-03-29T07:41:54.170Z,101174.06
2023-03-29T07:44:23.316Z,101177.56
2023-03-29T07:46:52.363Z,101170.22
2023-03-29T07:49:22.120Z,101179.44
2023-03-29T07:51:50.263Z,101168.66
2023-03-29T07:54:18.192Z,101171.53
2023-03-29T07:56:46.088Z,101177.94
2023-03-29T07:59:13.999Z,101178.25
2023-03-29T08:01:41.926Z,101170.31
2023-03-29T08:04:11.095Z,101175.47
2023-03-29T08:06:39.344Z,101182.56
2023-03-29T08:09:07.025Z,101178.69
2023-03-29T08:11:34.675Z,101175.47
2023-03-29T08:14:02.510Z,101173.00
2023-03-29T08:16:30.255Z,101169.94
2023-03-29T08:18:58.029Z,101171.56
2023-03-29T08:21:27.401Z,101180.56
2023-03-29T08:23:55.071Z,101180.41
2023-03-29T08:26:22.708Z,101176.31
2023-03-29T08:28:50.524Z,101186.25
2023-03-29T08:31:18.265Z,101176.56
2023-03-29T08:33:46.333Z,101170.22
2023-03-29T08:36:14.034Z,101177.19
2023-03-29T08:38:43.238Z,101170.09
2023-03-29T08:41:28.230Z,101172.00
2023-03-29T08:44:12.365Z,101163.00
2023-03-29T08:46:50.187Z,101162.09
2023-03-29T08:49:19.894Z,101172.41
2023-03-29T08:51:52.863Z,101164.56
2023-03-29T08:54:27.065Z,101159.38
2023-03-29T08:56:59.417Z,101155.19
2023-03-29T08:59:30.342Z,101144.91
2023-03-29T09:02:00.109Z,101146.50
2023-03-29T09:04:30.438Z,101145.34
2023-03-29T09:06:58.584Z,101145.56
2023-03-29T09:09:33.453Z,101137.97
2023-03-29T09:12:20.825Z,101138.69
2023-03-29T09:15:01.613Z,101141.28
2023-03-29T09:17:40.805Z,101129.59
2023-03-29T09:20:23.777Z,101127.44
2023-03-29T09:23:04.737Z,101125.97
2023-03-29T09:25:53.453Z,101117.75
2023-03-29T09:28:31.043Z,101114.06
2023-03-29T09:31:05.034Z,101111.94
2023-03-29T09:33:42.744Z,101112.28
2023-03-29T09:36:15.573Z,101111.03
2023-03-29T09:38:47.083Z,101115.81
2023-03-29T09:41:22.439Z,101116.84
2023-03-29T09:43:52.388Z,101123.38
2023-03-29T09:46:23.991Z,101116.75
2023-03-29T09:48:52.588Z,101102.63
2023-03-29T09:51:24.161Z,101102.28
2023-03-29T09:53:52.004Z,101103.13
2023-03-29T09:56:21.432Z,101107.38
2023-03-29T09:58:49.124Z,101098.44
2023-03-29T10:01:18.825Z,101097.00
2023-03-29T10:03:51.410Z,101102.06
2023-03-29T10:06:23.239Z,101098.06
2023-03-29T10:08:57.627Z,101099.72
2023-03-29T10:11:31.829Z,101092.22
2023-03-29T10:14:04.293Z,101089.38
2023-03-29T10:16:37.406Z,101093.69
2023-03-29T10:19:19.157Z,101089.34
2023-03-29T10:21:49.842Z,101071.97
2023-03-29T10:24:20.990Z,101064.59
2023-03-29T10:26:55.253Z,101066.53
2023-03-29T10:29:24.899Z,101072.88
2023-03-29T10:31:53.315Z,101063.31
2023-03-29T10:34:25.802Z,101062.50
2023-03-29T10:36:59.384Z,101067.09
2023-03-29T10:39:29.926Z,101071.09
2023-03-29T10:41:59.645Z,101055.50
2023-03-29T10:44:32.875Z,101052.78
2023-03-29T10:47:10.228Z,101056.59
2023-03-29T10:49:42.069Z,101057.72
2023-03-29T10:52:10.194Z,101055.84
2023-03-29T10:54:38.266Z,101050.59
2023-03-29T10:57:10.363Z,101048.16
2023-03-29T10:59:44.889Z,101055.28
2023-03-29T11:02:50.278Z,101053.00
2023-03-29T11:05:28.767Z,101035.16
2023-03-29T11:08:20.662Z,101028.91
2023-03-29T11:10:56.722Z,101032.16
2023-03-29T11:13:34.006Z,101022.22
2023-03-29T11:16:11.130Z,101019.75
2023-03-29T11:19:04.755Z,101028.22
2023-03-29T11:21:43.113Z,101026.78
2023-03-29T11:24:31.161Z,101022.13
2023-03-29T11:27:10.379Z,101021.81
2023-03-29T11:29:52.741Z,101017.78
2023-03-29T11:32:28.993Z,101022.19
2023-03-29T11:35:07.724Z,101024.38
2023-03-29T11:37:41.963Z,101011.78
2023-03-29T11:40:35.961Z,101001.03
2023-03-29T11:43:07.035Z,101006.31
2023-03-29T11:45:39.858Z,100995.38
2023-03-29T11:48:14.011Z,101000.63
2023-03-29T11:50:48.558Z,100995.72
2023-03-29T11:53:21.261Z,100999.31
2023-03-29T11:55:51.636Z,100996.03
2023-03-29T11:58:27.760Z,101001.81
2023-03-29T12:01:02.718Z,100994.16
2023-03-29T12:03:39.971Z,100995.50
2023-03-29T12:06:15.814Z,100994.19
2023-03-29T12:08:47.048Z,100994.16
2023-03-29T12:11:21.370Z,100990.63
2023-03-29T12:13:52.522Z,100995.28
2023-03-29T12:16:27.442Z,100984.28
2023-03-29T12:18:57.238Z,100979.38
2023-03-29T12:21:27.907Z,100971.78
2023-03-29T12:23:55.422Z,100971.00
2023-03-29T12:26:37.974Z,100975.69
2023-03-29T12:29:23.435Z,100973.78
2023-03-29T12:32:02.572Z,100965.22
2023-03-29T12:34:43.549Z,100965.53
2023-03-29T12:37:25.515Z,100977.88
2023-03-29T12:39:53.608Z,100977.59
2023-03-29T12:42:23.192Z,100971.00
2023-03-29T12:44:53.287Z,100976.47
2023-03-29T12:47:25.626Z,100980.00
2023-03-29T12:49:57.280Z,100981.34
2023-03-29T12:52:28.645Z,100974.44
2023-03-29T12:54:57.409Z,100964.28
2023-03-29T12:57:29.706Z,100958.31
2023-03-29T12:59:57.341Z,100970.38
2023-03-29T13:02:36.971Z,100954.19
2023-03-29T13:05:07.426Z,100954.50
2023-03-29T13:07:47.703Z,100945.19
2023-03-29T13:10:52.877Z,100933.66
2023-03-29T13:13:26.110Z,100929.28
2023-03-29T13:15:54.153Z,100926.28
2023-03-29T13:18:35.506Z,100942.72
2023-03-29T13:21:12.365Z,100936.94
2023-03-29T13:23:49.819Z,100926.28
2023-03-29T13:26:31.464Z,100937.56
2023-03-29T13:29:18.718Z,100941.09
2023-03-29T13:31:57.299Z,100936.16
2023-03-29T13:34:37.826Z,100933.66
2023-03-29T13:37:14.687Z,100944.41
2023-03-29T13:39:51.140Z,100943.84
2023-03-29T13:42:23.571Z,100941.38
2023-03-29T13:44:51.642Z,100938.91
2023-03-29T13:47:48.948Z,100929.88
2023-03-29T13:50:38.126Z,100934.25
2023-03-29T13:53:13.695Z,100938.59
2023-03-29T13:55:48.233Z,100947.66
2023-03-29T13:58:27.348Z,100947.44
2023-03-29T14:01:00.278Z,100934.22
2023-03-29T14:03:30.558Z,100935.06
2023-03-29T14:06:02.044Z,100927.94
2023-03-29T14:08:33.989Z,100931.53
2023-03-29T14:11:05.843Z,100927.41
2023-03-29T14:13:34.591Z,100927.66
2023-03-29T14:16:04.951Z,100929.28
2023-03-29T14:18:34.854Z,100923.81
2023-03-29T14:21:04.976Z,100923.81
2023-03-29T14:23:36.394Z,100928.75
2023-03-29T14:26:10.524Z,100918.84
2023-03-29T14:28:44.513Z,100932.56
2023-03-29T14:31:18.682Z,100927.63
2023-03-29T14:33:46.912Z,100924.34
2023-03-29T14:36:18.591Z,100920.22
2023-03-29T14:38:51.053Z,100926.28
2023-03-29T14:41:18.726Z,100920.75
2023-03-29T14:43:48.115Z,100918.63
2023-03-29T14:46:21.667Z,100922.94
2023-03-29T14:48:51.555Z,100916.66
2023-03-29T14:51:21.129Z,100913.38
2023-03-29T14:53:50.593Z,100907.84
2023-03-29T14:56:24.012Z,100907.28
2023-03-29T14:58:55.357Z,100905.66
2023-03-29T15:01:24.868Z,100907.91
2023-03-29T15:03:56.155Z,100897.75
2023-03-29T15:06:26.320Z,100898.03
2023-03-29T15:09:04.195Z,100896.94
2023-03-29T15:11:34.878Z,100896.09
2023-03-29T15:14:05.638Z,100891.41
2023-03-29T15:16:34.025Z,100892.00
2023-03-29T15:19:02.939Z,100898.03
2023-03-29T15:21:35.291Z,100882.16
2023-03-29T15:24:05.196Z,100888.47
2023-03-29T15:26:35.044Z,100887.13
2023-03-29T15:29:08.028Z,100877.47
2023-03-29T15:31:37.803Z,100881.84
2023-03-29T15:34:09.076Z,100871.44
2023-03-29T15:36:42.006Z,100868.72
2023-03-29T15:39:13.280Z,100865.69
2023-03-29T15:41:41.094Z,100859.94
2023-03-29T15:44:09.320Z,100856.13
2023-03-29T15:46:37.049Z,100843.78
2023-03-29T15:49:05.002Z,100834.19
2023-03-29T15:51:32.864Z,100845.16
2023-03-29T15:54:01.846Z,100832.84
2023-03-29T15:56:29.916Z,100820.22
2023-03-29T15:58:57.650Z,100820.19
2023-03-29T16:01:33.512Z,100820.78
2023-03-29T16:04:01.578Z,100811.72
2023-03-29T16:06:29.239Z,100807.59
2023-03-29T16:08:57.523Z,100793.38
2023-03-29T16:11:26.978Z,100805.72
2023-03-29T16:13:54.665Z,100797.22
2023-03-29T16:16:22.535Z,100798.31
2023-03-29T16:18:50.516Z,100792.00
2023-03-29T16:21:20.737Z,100799.06
2023-03-29T16:23:48.602Z,100800.47
2023-03-29T16:26:17.789Z,100804.84
2023-03-29T16:28:46.794Z,100810.63
2023-03-29T16:31:15.050Z,100806.50
2023-03-29T16:33:42.831Z,100816.91
2023-03-29T16:36:11.934Z,100806.75
2023-03-29T16:38:39.738Z,100801.84
2023-03-29T16:41:08.542Z,100801.34
2023-03-29T16:43:38.541Z,100803.78
2023-03-29T16:46:08.747Z,100804.34
2023-03-29T16:48:36.570Z,100801.03
2023-03-29T16:51:04.389Z,100799.13
2023-03-29T16:53:32.046Z,100802.66
2023-03-29T16:56:05.572Z,100801.03
2023-03-29T16:58:33.461Z,100792.28
2023-03-29T17:01:10.720Z,100803.22
2023-03-29T17:03:39.316Z,100795.00
2023-03-29T17:06:08.821Z,100791.19
2023-03-29T17:08:36.734Z,100797.47
2023-03-29T17:11:04.797Z,100791.44
2023-03-29T17:13:32.575Z,100787.06
2023-03-29T17:16:01.347Z,100781.84
2023-03-29T17:18:30.904Z,100781.59
2023-03-29T17:20:59.774Z,100788.13
2023-03-29T17:23:27.716Z,100779.34
2023-03-29T17:25:56.578Z,100781.00
2023-03-29T17:28:24.506Z,100789.81
2023-03-29T17:30:52.651Z,100785.66
2023-03-29T17:33:22.453Z,100784.59
2023-03-29T17:35:51.932Z,100787.31
2023-03-29T17:38:19.729Z,100777.72
2023-03-29T17:40:53.198Z,100779.34
2023-03-29T17:43:21.255Z,100783.19
2023-03-29T17:45:51.601Z,100774.41
2023-03-29T17:48:19.696Z,100766.47
2023-03-29T17:50:47.685Z,100772.78
2023-03-29T17:53:16.676Z,100772.78
2023-03-29T17:55:44.350Z,100770.84
2023-03-29T17:58:12.130Z,100768.38
2023-03-29T18:00:39.809Z,100776.59
2023-03-29T18:03:07.578Z,100778.50
2023-03-29T18:05:35.547Z,100779.84
2023-03-29T18:08:03.421Z,100775.22
2023-03-29T18:10:32.563Z,100775.75
2023-03-29T18:13:00.535Z,100772.19
2023-03-29T18:15:28.304Z,100773.56
2023-03-29T18:17:56.353Z,100772.50
2023-03-29T18:20:23.998Z,100767.81
2023-03-29T18:22:51.702Z,100777.91
2023-03-29T18:25:20.119Z,100775.72
2023-03-29T18:27:49.998Z,100767.81
2023-03-29T18:30:17.896Z,100780.66
2023-03-29T18:32:45.736Z,100773.28
2023-03-29T18:35:13.439Z,100775.44
2023-03-29T18:37:41.078Z,100775.69
2023-03-29T18:40:10.176Z,100776.25
2023-03-29T18:42:37.880Z,100778.75
2023-03-29T18:45:09.300Z,100777.34
2023-03-29T18:47:37.038Z,100779.03
2023-03-29T18:50:05.222Z,100773.25
2023-03-29T18:52:33.176Z,100776.25
2023-03-29T18:55:00.888Z,100778.44
2023-03-29T18:57:28.711Z,100776.78
2023-03-29T18:59:56.474Z,100783.91
2023-03-29T19:02:25.824Z,100779.22
2023-03-29T19:04:53.533Z,100778.19
2023-03-29T19:07:21.951Z,100779.28
2023-03-29T19:09:49.626Z,100781.19
2023-03-29T19:12:17.310Z,100777.88
2023-03-29T19:14:45.025Z,100777.34
2023-03-29T19:17:12.682Z,100768.59
2023-03-29T19:19:41.752Z,100763.38
2023-03-29T19:22:09.553Z,100764.75
2023-03-29T19:24:37.223Z,100762.53
2023-03-29T19:27:06.460Z,100752.69
2023-03-29T19:29:34.256Z,100756.22
2023-03-29T19:32:01.965Z,100759.50
2023-03-29T19:34:30.464Z,100755.13
2023-03-29T19:37:00.782Z,100758.72
2023-03-29T19:39:29.647Z,100749.41
2023-03-29T19:41:57.610Z,100755.69
2023-03-29T19:44:25.509Z,100750.75
2023-03-29T19:46:53.259Z,100744.75
2023-03-29T19:49:21.191Z,100746.66
2023-03-29T19:51:48.910Z,100734.63
2023-03-29T19:54:17.994Z,100727.50
2023-03-29T19:56:46.308Z,100722.28
2023-03-29T19:59:15.123Z,100727.47
2023-03-29T20:01:51.255Z,100728.31
2023-03-29T20:04:19.279Z,100718.47
2023-03-29T20:06:47.353Z,100715.72
2023-03-29T20:09:15.985Z,100725.81
2023-03-29T20:11:46.579Z,100713.78
2023-03-29T20:14:14.713Z,100713.75
2023-03-29T20:16:43.473Z,100711.81
2023-03-29T20:19:13.804Z,100703.91
2023-03-29T20:21:41.526Z,100706.09
2023-03-29T20:24:09.637Z,100704.69
2023-03-29T20:26:37.604Z,100702.72
2023-03-29T20:29:07.239Z,100701.09
2023-03-29T20:31:34.931Z,100701.91
2023-03-29T20:34:02.611Z,100704.91
2023-03-29T20:36:30.775Z,100707.66
2023-03-29T20:38:59.149Z,100695.09
2023-03-29T20:41:27.152Z,100690.69
2023-03-29T20:43:59.808Z,100683.59
2023-03-29T20:46:34.124Z,100679.50
2023-03-29T20:49:02.762Z,100679.22
2023-03-29T20:51:31.898Z,100675.09
2023-03-29T20:54:04.410Z,100667.72
2023-03-29T20:56:33.842Z,100672.09
2023-03-29T20:59:02.891Z,100672.94
2023-03-29T21:01:31.986Z,100670.53
2023-03-29T21:03:59.778Z,100655.47
2023-03-29T21:06:27.552Z,100660.63
2023-03-29T21:08:55.199Z,100657.06
2023-03-29T21:11:22.875Z,100659.81
2023-03-29T21:13:52.867Z,100663.34
2023-03-29T21:16:20.696Z,100661.19
2023-03-29T21:18:49.854Z,100657.31
2023-03-29T21:21:17.549Z,100649.97
2023-03-29T21:23:45.257Z,100648.84
2023-03-29T21:26:13.157Z,100648.84
2023-03-29T21:28:42.352Z,100646.63
2023-03-29T21:31:10.629Z,100643.63
2023-03-29T21:33:38.285Z,100636.78
2023-03-29T21:36:08.161Z,100633.78
2023-03-29T21:38:35.943Z,100631.59
2023-03-29T21:41:03.764Z,100638.94
2023-03-29T21:43:31.529Z,100620.66
2023-03-29T21:45:59.207Z,100614.91
2023-03-29T21:48:27.141Z,100613.25
2023-03-29T21:50:54.816Z,100611.63
2023-03-29T21:53:24.508Z,100609.72
2023-03-29T21:55:52.546Z,100608.63
2023-03-29T21:58:20.739Z,100604.25
2023-03-29T22:00:49.361Z,100604.78
2023-03-29T22:03:17.483Z,100603.94
2023-03-29T22:05:56.153Z,100596.00
2023-03-29T22:08:26.255Z,100600.13
2023-03-29T22:10:56.596Z,100592.44
2023-03-29T22:13:25.250Z,100588.63
2023-03-29T22:15:58.462Z,100580.97
2023-03-29T22:18:27.787Z,100584.50
2023-03-29T22:20:55.626Z,100581.22
2023-03-29T22:23:24.808Z,100586.41
2023-03-29T22:25:53.942Z,100583.09
2023-03-29T22:28:21.598Z,100588.84
2023-03-29T22:30:49.295Z,100587.47
2023-03-29T22:33:17.133Z,100585.00
2023-03-29T22:35:44.805Z,100584.44
2023-03-29T22:38:12.458Z,100579.56
2023-03-29T22:40:41.102Z,100582.31
2023-03-29T22:43:10.158Z,100582.31
2023-03-29T22:45:37.968Z,100577.16
2023-03-29T22:48:05.910Z,100571.69
2023-03-29T22:50:33.895Z,100570.28
2023-03-29T22:53:01.566Z,100565.91
2023-03-29T22:55:29.251Z,100565.63
2023-03-29T22:57:56.871Z,100571.94
2023-03-29T23:00:26.323Z,100571.38
2023-03-29T23:02:54.057Z,100566.72
2023-03-29T23:05:21.794Z,100559.34
2023-03-29T23:07:49.678Z,100556.91
2023-03-29T23:10:17.431Z,100546.78
2023-03-29T23:12:45.050Z,100544.59
2023-03-29T23:15:13.488Z,100541.31
2023-03-29T23:17:42.562Z,100540.22
2023-03-29T23:20:11.647Z,100536.09
2023-03-29T23:22:39.673Z,100527.91
2023-03-29T23:25:08.525Z,100536.38
2023-03-29T23:27:36.245Z,100534.19
2023-03-29T23:30:03.938Z,100533.66
2023-03-29T23:32:31.649Z,100530.09
2023-03-29T23:35:01.167Z,100523.81
2023-03-29T23:37:28.791Z,100520.53
2023-03-29T23:39:56.388Z,100519.13
2023-03-29T23:42:24.053Z,100518.31
2023-03-29T23:44:51.750Z,100520.50
2023-03-29T23:47:19.482Z,100516.13
2023-03-29T23:49:47.766Z,100515.56
2023-03-29T23:52:17.374Z,100504.09
2023-03-29T23:54:45.125Z,100495.63
2023-03-29T23:57:12.923Z,100494.25
2023-03-29T23:59:40.716Z,100495.03
